createdAt,value
2023-04-18T00:01:38.245Z,7.50
2023-04-18T00:04:07.978Z,8.53
2023-04-18T00:06:36.708Z,8.00
2023-04-18T00:09:05.007Z,8.80
2023-04-18T00:11:32.789Z,7.93
2023-04-18T00:14:00.700Z,8.30
2023-04-18T00:16:28.775Z,9.10
2023-04-18T00:18:57.192Z,8.97
2023-04-18T00:21:26.452Z,9.10
2023-04-18T00:23:54.252Z,8.83
2023-04-18T00:26:21.984Z,9.20
2023-04-18T00:28:49.950Z,10.17
2023-04-18T00:31:17.815Z,10.03
2023-04-18T00:33:45.591Z,9.50
2023-04-18T00:36:19.294Z,8.80
2023-04-18T00:38:48.420Z,9.77
2023-04-18T00:41:16.417Z,9.00
2023-04-18T00:43:44.334Z,9.57
2023-04-18T00:46:12.101Z,9.47
2023-04-18T00:48:40.436Z,9.60
2023-04-18T00:51:08.501Z,9.27
2023-04-18T00:53:36.974Z,10.03
2023-04-18T00:56:06.822Z,10.30
2023-04-18T00:58:34.660Z,10.10
2023-04-18T01:01:02.470Z,10.73
2023-04-18T01:03:30.368Z,9.67
2023-04-18T01:05:58.335Z,11.90
2023-04-18T01:08:26.155Z,10.33
2023-04-18T01:10:53.877Z,10.30
2023-04-18T01:13:22.896Z,11.77
2023-04-18T01:15:51.687Z,11.90
2023-04-18T01:18:20.820Z,12.77
2023-04-18T01:20:50.072Z,12.50
2023-04-18T01:23:19.100Z,11.23
2023-04-18T01:25:50.247Z,11.30
2023-04-18T01:28:18.117Z,12.30
2023-04-18T01:30:45.816Z,11.13
2023-04-18T01:33:13.516Z,12.03
2023-04-18T01:35:41.288Z,13.63
2023-04-18T01:38:09.054Z,12.33
2023-04-18T01:40:36.858Z,11.97
2023-04-18T01:43:06.007Z,12.90
2023-04-18T01:45:33.722Z,11.60
2023-04-18T01:48:01.494Z,12.97
2023-04-18T01:50:29.284Z,12.73
2023-04-18T01:52:56.963Z,12.40
2023-04-18T01:55:24.835Z,13.67
2023-04-18T01:57:52.882Z,13.20
2023-04-18T02:00:22.589Z,13.27
2023-04-18T02:02:50.898Z,12.47
2023-04-18T02:05:18.857Z,13.73
2023-04-18T02:07:47.979Z,13.57
2023-04-18T02:10:16.620Z,14.40
2023-04-18T02:12:44.402Z,13.50
2023-04-18T02:15:12.555Z,14.53
2023-04-18T02:17:41.696Z,14.80
2023-04-18T02:20:10.897Z,13.90
2023-04-18T02:22:39.460Z,15.93
2023-04-18T02:25:07.907Z,15.07
2023-04-18T02:27:35.663Z,15.33
2023-04-18T02:30:03.486Z,16.10
2023-04-18T02:32:31.217Z,14.43
2023-04-18T02:35:00.313Z,15.77
2023-04-18T02:37:28.055Z,14.00
2023-04-18T02:39:55.774Z,15.43
2023-04-18T02:42:23.480Z,15.83
2023-04-18T02:44:51.179Z,14.17
2023-04-18T02:47:18.901Z,15.77
2023-04-18T02:49:46.628Z,17.10
2023-04-18T02:52:15.735Z,16.80
2023-04-18T02:54:43.450Z,15.77
2023-04-18T02:57:11.185Z,15.10
2023-04-18T02:59:38.921Z,16.10
2023-04-18T03:02:06.719Z,16.37
2023-04-18T03:04:34.481Z,16.30
2023-04-18T03:07:02.887Z,16.17
2023-04-18T03:09:31.986Z,15.00
2023-04-18T03:11:59.704Z,16.83
2023-04-18T03:14:27.752Z,16.30
2023-04-18T03:16:56.033Z,16.50
2023-04-18T03:19:23.755Z,16.13
2023-04-18T03:21:51.484Z,16.83
2023-04-18T03:24:19.834Z,17.30
2023-04-18T03:26:48.976Z,16.40
2023-04-18T03:29:16.681Z,17.60
2023-04-18T03:31:44.711Z,17.37
2023-04-18T03:34:12.625Z,19.70
2023-04-18T03:36:40.983Z,19.10
2023-04-18T03:39:08.670Z,19.30
2023-04-18T03:41:36.359Z,18.67
2023-04-18T03:44:05.819Z,17.93
2023-04-18T03:46:33.577Z,18.60
2023-04-18T03:49:01.420Z,18.20
2023-04-18T03:51:33.367Z,19.27
2023-04-18T03:54:01.543Z,17.70
2023-04-18T03:56:29.274Z,17.70
2023-04-18T03:58:58.583Z,19.00
2023-04-18T04:01:27.747Z,18.97
2023-04-18T04:03:55.708Z,18.80
2023-04-18T04:06:23.978Z,20.10
2023-04-18T04:08:51.696Z,20.30
2023-04-18T04:11:19.650Z,18.57
2023-04-18T04:13:47.340Z,20.93
2023-04-18T04:16:15.327Z,18.97
2023-04-18T04:18:44.804Z,20.77
2023-04-18T04:21:12.532Z,21.97
2023-04-18T04:23:41.929Z,19.13
2023-04-18T04:26:09.714Z,21.40
2023-04-18T04:28:38.850Z,18.30
2023-04-18T04:31:08.261Z,19.70
2023-04-18T04:33:38.817Z,22.70
2023-04-18T04:36:08.902Z,21.20
2023-04-18T04:38:38.415Z,19.53
2023-04-18T04:41:07.488Z,18.90
2023-04-18T04:43:35.843Z,18.73
2023-04-18T04:46:04.131Z,19.90
2023-04-18T04:48:31.859Z,18.87
2023-04-18T04:51:01.057Z,19.07
2023-04-18T04:53:31.252Z,19.20
2023-04-18T04:55:59.344Z,18.93
2023-04-18T04:58:27.496Z,19.17
2023-04-18T05:00:55.252Z,17.53
2023-04-18T05:03:23.359Z,20.53
2023-04-18T05:05:51.488Z,17.43
2023-04-18T05:08:19.243Z,17.80
2023-04-18T05:10:49.723Z,16.27
2023-04-18T05:13:17.430Z,18.20
2023-04-18T05:15:45.510Z,18.17
2023-04-18T05:18:14.146Z,18.07
2023-04-18T05:20:41.904Z,18.43
2023-04-18T05:23:09.586Z,16.90
2023-04-18T05:25:37.780Z,16.87
2023-04-18T05:28:08.296Z,18.00
2023-04-18T05:30:36.125Z,17.37
2023-04-18T05:33:04.222Z,17.27
2023-04-18T05:35:32.503Z,17.20
2023-04-18T05:38:00.578Z,15.77
2023-04-18T05:40:28.329Z,15.10
2023-04-18T05:42:56.068Z,15.93
2023-04-18T05:45:25.090Z,16.47
2023-04-18T05:47:53.760Z,17.80
2023-04-18T05:50:21.687Z,16.10
2023-04-18T05:52:49.373Z,15.53
2023-04-18T05:55:17.072Z,15.30
2023-04-18T05:57:44.818Z,15.70
2023-04-18T06:00:13.846Z,17.40
2023-04-18T06:02:43.032Z,16.57
2023-04-18T06:05:11.420Z,15.30
2023-04-18T06:07:39.628Z,16.90
2023-04-18T06:10:13.278Z,16.03
2023-04-18T06:12:41.234Z,14.80
2023-04-18T06:15:10.479Z,15.03
2023-04-18T06:17:38.340Z,14.67
2023-04-18T06:20:08.718Z,15.20
2023-04-18T06:22:36.655Z,14.60
2023-04-18T06:25:04.523Z,14.73
2023-04-18T06:27:32.313Z,15.33
2023-04-18T06:30:00.247Z,16.00
2023-04-18T06:32:28.079Z,16.60
2023-04-18T06:34:55.847Z,14.53
2023-04-18T06:37:25.186Z,14.50
2023-04-18T06:39:52.898Z,15.20
2023-04-18T06:42:22.379Z,15.13
2023-04-18T06:44:50.610Z,14.10
2023-04-18T06:47:18.514Z,15.30
2023-04-18T06:49:46.226Z,14.93
2023-04-18T06:52:14.023Z,16.73
2023-04-18T06:54:43.025Z,15.97
2023-04-18T06:57:10.751Z,16.40
2023-04-18T06:59:38.491Z,15.80
2023-04-18T07:02:06.290Z,13.93
2023-04-18T07:04:34.083Z,14.03
2023-04-18T07:07:02.063Z,14.33
2023-04-18T07:09:29.769Z,14.13
2023-04-18T07:11:59.038Z,15.80
2023-04-18T07:14:27.273Z,13.63
2023-04-18T07:16:55.299Z,15.40
2023-04-18T07:19:23.131Z,14.70
2023-04-18T07:21:50.952Z,13.97
2023-04-18T07:24:18.672Z,14.17
2023-04-18T07:26:46.573Z,14.10
2023-04-18T07:29:15.639Z,12.73
2023-04-18T07:31:43.341Z,12.90
2023-04-18T07:34:11.600Z,13.80
2023-04-18T07:36:39.585Z,14.77
2023-04-18T07:39:07.843Z,14.37
2023-04-18T07:41:35.886Z,13.93
2023-04-18T07:44:03.867Z,13.33
2023-04-18T07:46:33.931Z,15.97
2023-04-18T07:49:02.262Z,13.40
2023-04-18T07:51:31.836Z,14.53
2023-04-18T07:53:59.748Z,13.10
2023-04-18T07:56:27.880Z,14.13
2023-04-18T07:58:55.583Z,14.27
2023-04-18T08:01:24.674Z,14.30
2023-04-18T08:03:54.939Z,13.83
2023-04-18T08:06:22.919Z,14.10
2023-04-18T08:08:50.665Z,12.90
2023-04-18T08:11:18.374Z,12.10
2023-04-18T08:13:46.082Z,12.40
2023-04-18T08:16:15.562Z,13.47
2023-04-18T08:18:44.901Z,12.43
2023-04-18T08:21:14.001Z,12.17
2023-04-18T08:23:41.778Z,12.90
2023-04-18T08:26:09.485Z,12.87
2023-04-18T08:28:37.259Z,12.97
2023-04-18T08:31:05.769Z,12.93
2023-04-18T08:33:33.590Z,13.20
2023-04-18T08:36:01.411Z,13.50
2023-04-18T08:38:30.625Z,13.77
2023-04-18T08:40:58.307Z,13.40
2023-04-18T08:43:26.382Z,13.40
2023-04-18T08:45:59.268Z,13.50
2023-04-18T08:48:27.782Z,13.87
2023-04-18T08:50:58.502Z,13.33
2023-04-18T08:53:27.211Z,12.87
2023-04-18T08:55:57.869Z,16.90
2023-04-18T08:58:27.318Z,13.40
2023-04-18T09:00:55.535Z,13.17
2023-04-18T09:03:39.542Z,12.67
2023-04-18T09:06:09.253Z,12.77
2023-04-18T09:08:37.013Z,13.07
2023-04-18T09:11:26.159Z,14.60
2023-04-18T09:13:55.957Z,11.80
2023-04-18T09:16:24.717Z,12.23
2023-04-18T09:19:13.137Z,12.73
2023-04-18T09:21:44.298Z,12.80
2023-04-18T09:24:20.635Z,13.38
2023-04-18T09:26:51.297Z,13.40
2023-04-18T09:29:22.300Z,14.23
2023-04-18T09:31:59.746Z,11.70
2023-04-18T09:34:28.227Z,11.90
2023-04-18T09:37:09.620Z,12.47
2023-04-18T09:39:38.499Z,11.57
2023-04-18T09:42:07.931Z,12.03
2023-04-18T09:44:35.840Z,11.97
2023-04-18T09:47:03.584Z,11.67
2023-04-18T09:49:31.309Z,11.97
2023-04-18T09:52:00.531Z,12.60
2023-04-18T09:54:31.961Z,12.83
2023-04-18T09:57:00.820Z,11.67
2023-04-18T09:59:44.149Z,13.43
2023-04-18T10:02:19.669Z,12.47
2023-04-18T10:04:48.841Z,11.63
2023-04-18T10:07:17.826Z,12.53
2023-04-18T10:09:47.911Z,11.30
2023-04-18T10:12:16.920Z,12.70
2023-04-18T10:14:46.680Z,12.40
2023-04-18T10:17:15.598Z,11.77
2023-04-18T10:19:45.947Z,11.70
2023-04-18T10:22:13.808Z,10.80
2023-04-18T10:24:49.582Z,12.77
2023-04-18T10:27:17.729Z,12.80
2023-04-18T10:29:50.972Z,11.97
2023-04-18T10:32:19.880Z,12.07
2023-04-18T10:34:47.972Z,11.03
2023-04-18T10:37:17.644Z,11.80
2023-04-18T10:39:51.152Z,11.87
2023-04-18T10:42:19.004Z,11.17
2023-04-18T10:45:19.526Z,12.00
2023-04-18T10:47:47.580Z,11.50
2023-04-18T10:50:16.149Z,10.60
2023-04-18T10:52:44.783Z,11.10
2023-04-18T10:55:17.408Z,12.10
2023-04-18T10:57:46.844Z,11.43
2023-04-18T11:00:17.366Z,11.97
2023-04-18T11:02:57.798Z,11.67
2023-04-18T11:05:27.124Z,12.67
2023-04-18T11:07:55.405Z,11.20
2023-04-18T11:10:25.341Z,10.77
2023-04-18T11:12:53.769Z,9.00
2023-04-18T11:15:23.450Z,10.43
2023-04-18T11:18:01.416Z,9.90
2023-04-18T11:20:30.315Z,8.63
2023-04-18T11:23:00.630Z,9.20
2023-04-18T11:25:30.284Z,8.80
2023-04-18T11:28:00.763Z,8.40
2023-04-18T11:30:29.746Z,7.88
2023-04-18T11:32:58.921Z,8.67
2023-04-18T11:35:26.947Z,7.70
2023-04-18T11:37:56.097Z,9.33
2023-04-18T11:40:24.053Z,9.37
2023-04-18T11:42:51.794Z,9.80
2023-04-18T11:45:19.546Z,8.20
2023-04-18T11:47:47.378Z,7.70
2023-04-18T11:50:17.618Z,8.10
2023-04-18T11:52:51.118Z,7.40
2023-04-18T11:55:21.361Z,8.40
2023-04-18T11:57:53.299Z,8.20
2023-04-18T12:00:31.052Z,8.43
2023-04-18T12:02:59.889Z,8.40
2023-04-18T12:05:30.898Z,8.37
2023-04-18T12:08:07.750Z,7.13
2023-04-18T12:10:36.793Z,7.50
2023-04-18T12:13:08.600Z,7.70
2023-04-18T12:15:39.921Z,7.00
2023-04-18T12:18:09.133Z,7.77
2023-04-18T12:20:45.785Z,7.83
2023-04-18T12:23:35.402Z,7.97
2023-04-18T12:26:04.109Z,8.83
2023-04-18T12:28:32.913Z,7.40
2023-04-18T12:31:01.384Z,6.80
2023-04-18T12:33:29.365Z,7.83
2023-04-18T12:35:58.448Z,6.83
2023-04-18T12:38:27.110Z,7.53
2023-04-18T12:40:54.901Z,7.97
2023-04-18T12:43:22.609Z,7.00
2023-04-18T12:45:51.019Z,8.00
2023-04-18T12:48:18.840Z,7.40
2023-04-18T12:50:46.587Z,7.70
2023-04-18T12:53:15.648Z,7.63
2023-04-18T12:55:43.378Z,7.40
2023-04-18T12:58:11.101Z,8.23
2023-04-18T13:00:39.935Z,7.57
2023-04-18T13:03:08.660Z,7.70
2023-04-18T13:05:37.389Z,6.80
2023-04-18T13:08:16.167Z,7.17
2023-04-18T13:10:47.456Z,7.40
2023-04-18T13:13:15.467Z,6.30
2023-04-18T13:15:43.193Z,7.20
2023-04-18T13:18:11.099Z,8.07
2023-04-18T13:20:38.803Z,7.83
2023-04-18T13:23:06.559Z,7.87
2023-04-18T13:25:34.269Z,8.63
2023-04-18T13:28:03.399Z,8.57
2023-04-18T13:30:31.890Z,7.37
2023-04-18T13:32:59.797Z,8.40
2023-04-18T13:35:27.590Z,7.10
2023-04-18T13:37:55.314Z,7.67
2023-04-18T13:40:23.196Z,6.43
2023-04-18T13:42:51.420Z,7.43
2023-04-18T13:45:20.878Z,7.60
2023-04-18T13:47:48.680Z,7.03
2023-04-18T13:50:16.763Z,7.53
2023-04-18T13:52:44.613Z,7.20
2023-04-18T13:55:12.452Z,7.30
2023-04-18T13:57:41.115Z,6.87
2023-04-18T14:00:11.089Z,6.77
2023-04-18T14:02:40.528Z,6.57
2023-04-18T14:05:10.648Z,7.67
2023-04-18T14:07:38.870Z,6.57
2023-04-18T14:10:07.580Z,6.33
2023-04-18T14:12:35.396Z,7.13
2023-04-18T14:15:03.309Z,7.37
2023-04-18T14:17:31.040Z,7.10
2023-04-18T14:20:00.364Z,6.60
2023-04-18T14:22:28.073Z,7.07
2023-04-18T14:24:56.128Z,8.13
2023-04-18T14:27:25.981Z,7.33
2023-04-18T14:29:53.751Z,8.57
2023-04-18T14:32:21.531Z,6.95
2023-04-18T14:34:49.313Z,7.10
2023-04-18T14:37:18.454Z,7.20
2023-04-18T14:39:46.217Z,7.20
2023-04-18T14:42:14.044Z,7.40
2023-04-18T14:44:42.291Z,7.33
2023-04-18T14:47:10.256Z,7.23
2023-04-18T14:49:38.048Z,6.90
2023-04-18T14:52:06.266Z,6.53
2023-04-18T14:54:35.549Z,7.10
2023-04-18T14:57:03.336Z,6.80
2023-04-18T14:59:31.373Z,8.40
2023-04-18T15:01:59.115Z,7.53
2023-04-18T15:04:27.094Z,7.10
2023-04-18T15:06:55.067Z,6.70
2023-04-18T15:09:22.769Z,6.60
2023-04-18T15:11:52.013Z,7.30
2023-04-18T15:14:19.693Z,7.33
2023-04-18T15:16:50.088Z,6.50
2023-04-18T15:19:17.943Z,7.10
2023-04-18T15:21:45.729Z,8.30
2023-04-18T15:24:15.935Z,7.37
2023-04-18T15:26:44.056Z,7.07
2023-04-18T15:29:13.308Z,7.72
2023-04-18T15:31:41.124Z,9.17
2023-04-18T15:34:09.167Z,9.90
2023-04-18T15:36:37.055Z,9.20
2023-04-18T15:39:06.637Z,9.17
2023-04-18T15:41:36.607Z,9.80
2023-04-18T15:44:06.071Z,9.80
2023-04-18T15:46:37.561Z,9.53
2023-04-18T15:49:05.439Z,9.13
2023-04-18T15:51:33.430Z,10.17
2023-04-18T15:54:01.208Z,10.33
2023-04-18T15:56:29.702Z,10.13
2023-04-18T15:59:00.131Z,10.93
2023-04-18T16:01:27.953Z,10.83
2023-04-18T16:03:57.110Z,9.90
2023-04-18T16:06:24.930Z,11.20
2023-04-18T16:08:52.610Z,10.37
2023-04-18T16:11:20.963Z,10.20
2023-04-18T16:13:48.932Z,10.50
2023-04-18T16:16:16.759Z,10.80
2023-04-18T16:18:44.562Z,10.10
2023-04-18T16:21:15.389Z,10.30
2023-04-18T16:23:43.786Z,11.70
2023-04-18T16:26:11.536Z,10.73
2023-04-18T16:28:39.347Z,11.23
2023-04-18T16:31:07.288Z,9.87
2023-04-18T16:33:35.040Z,10.50
2023-04-18T16:36:03.552Z,9.63
2023-04-18T16:38:32.639Z,9.63
2023-04-18T16:41:01.527Z,11.20
2023-04-18T16:43:30.913Z,10.90
2023-04-18T16:46:00.306Z,10.50
2023-04-18T16:48:28.908Z,8.93
2023-04-18T16:50:56.741Z,8.93
2023-04-18T16:53:25.169Z,10.30
2023-04-18T16:55:56.617Z,10.50
2023-04-18T16:58:24.313Z,8.77
2023-04-18T17:00:52.554Z,10.13
2023-04-18T17:03:20.353Z,11.57
2023-04-18T17:05:48.193Z,10.47
2023-04-18T17:08:15.880Z,10.47
2023-04-18T17:10:43.564Z,10.97
2023-04-18T17:13:12.587Z,10.10
2023-04-18T17:15:40.434Z,10.50
2023-04-18T17:18:08.185Z,9.97
2023-04-18T17:20:36.241Z,9.70
2023-04-18T17:23:04.064Z,10.80
2023-04-18T17:25:31.821Z,11.30
2023-04-18T17:28:02.243Z,12.20
2023-04-18T17:30:32.979Z,11.87
2023-04-18T17:33:02.190Z,12.20
2023-04-18T17:35:30.140Z,11.90
2023-04-18T17:37:59.019Z,10.73
2023-04-18T17:40:30.936Z,11.67
2023-04-18T17:43:00.138Z,11.20
2023-04-18T17:45:30.692Z,10.90
2023-04-18T17:48:03.336Z,11.40
2023-04-18T17:50:31.957Z,10.80
2023-04-18T17:52:59.777Z,10.30
2023-04-18T17:55:29.672Z,12.53
2023-04-18T17:57:58.734Z,10.33
2023-04-18T18:00:27.731Z,11.60
2023-04-18T18:03:03.902Z,11.60
2023-04-18T18:05:33.159Z,11.53
2023-04-18T18:08:01.274Z,11.77
2023-04-18T18:10:29.440Z,11.83
2023-04-18T18:12:57.250Z,9.80
2023-04-18T18:15:25.265Z,10.47
2023-04-18T18:17:53.345Z,11.57
2023-04-18T18:20:21.089Z,10.80
2023-04-18T18:22:50.805Z,12.77
2023-04-18T18:25:18.663Z,11.43
2023-04-18T18:27:46.393Z,12.73
2023-04-18T18:30:14.583Z,11.23
2023-04-18T18:32:42.308Z,11.60
2023-04-18T18:35:10.680Z,12.47
2023-04-18T18:37:38.433Z,11.07
2023-04-18T18:40:09.275Z,10.90
2023-04-18T18:42:37.690Z,13.70
2023-04-18T18:45:07.410Z,12.77
2023-04-18T18:47:36.303Z,11.10
2023-04-18T18:50:05.779Z,11.70
2023-04-18T18:52:34.189Z,14.10
2023-04-18T18:55:03.088Z,13.67
2023-04-18T18:57:32.233Z,11.33
2023-04-18T18:59:59.967Z,13.10
2023-04-18T19:02:28.147Z,13.30
2023-04-18T19:04:56.207Z,13.50
2023-04-18T19:07:23.992Z,12.67
2023-04-18T19:09:53.215Z,14.47
2023-04-18T19:12:20.914Z,14.10
2023-04-18T19:14:50.700Z,14.80
2023-04-18T19:17:21.789Z,13.70
2023-04-18T19:19:57.884Z,13.60
2023-04-18T19:22:25.867Z,14.10
2023-04-18T19:24:53.632Z,13.93
2023-04-18T19:27:21.348Z,15.13
2023-04-18T19:29:50.499Z,14.30
2023-04-18T19:32:18.237Z,13.07
2023-04-18T19:34:47.017Z,12.87
2023-04-18T19:37:14.790Z,13.20
2023-04-18T19:39:42.494Z,12.30
2023-04-18T19:42:12.097Z,13.33
2023-04-18T19:44:44.213Z,10.97
2023-04-18T19:47:13.251Z,9.70
2023-04-18T19:49:40.931Z,8.90
2023-04-18T19:52:08.661Z,8.40
2023-04-18T19:54:36.368Z,7.10
2023-04-18T19:57:07.130Z,7.03
2023-04-18T19:59:34.866Z,5.77
2023-04-18T20:02:05.641Z,5.13
2023-04-18T20:04:36.399Z,6.33
2023-04-18T20:07:06.343Z,5.03
2023-04-18T20:09:34.091Z,5.80
2023-04-18T20:12:01.902Z,5.50
2023-04-18T20:14:29.708Z,4.67
2023-04-18T20:16:57.564Z,5.63
2023-04-18T20:19:25.681Z,5.20
2023-04-18T20:21:54.769Z,5.30
2023-04-18T20:24:23.709Z,4.97
2023-04-18T20:26:51.557Z,4.88
2023-04-18T20:29:19.272Z,4.60
2023-04-18T20:31:47.073Z,4.40
2023-04-18T20:34:15.031Z,5.07
2023-04-18T20:36:42.784Z,4.30
2023-04-18T20:39:16.328Z,4.67
2023-04-18T20:41:46.827Z,4.63
2023-04-18T20:44:15.011Z,4.40
2023-04-18T20:46:43.442Z,4.37
2023-04-18T20:49:11.594Z,4.37
2023-04-18T20:51:39.328Z,4.30
2023-04-18T20:54:07.343Z,4.50
2023-04-18T20:56:37.235Z,3.83
2023-04-18T20:59:05.687Z,5.70
2023-04-18T21:01:34.136Z,4.60
2023-04-18T21:04:03.354Z,4.50
2023-04-18T21:06:31.267Z,4.20
2023-04-18T21:08:58.998Z,4.37
2023-04-18T21:11:26.754Z,3.80
2023-04-18T21:13:55.860Z,4.83
2023-04-18T21:16:23.916Z,4.50
2023-04-18T21:18:51.752Z,4.90
2023-04-18T21:21:19.466Z,4.20
2023-04-18T21:23:47.253Z,4.00
2023-04-18T21:26:15.187Z,4.03
2023-04-18T21:29:00.414Z,4.60
2023-04-18T21:31:30.338Z,4.30
2023-04-18T21:34:00.179Z,4.90
2023-04-18T21:36:29.078Z,4.83
2023-04-18T21:38:58.437Z,4.20
2023-04-18T21:41:26.547Z,4.07
2023-04-18T21:43:55.950Z,4.30
2023-04-18T21:46:23.747Z,5.00
2023-04-18T21:48:51.532Z,3.93
2023-04-18T21:51:19.441Z,4.40
2023-04-18T21:53:47.231Z,4.40
2023-04-18T21:56:15.021Z,4.80
2023-04-18T21:58:42.717Z,3.73
2023-04-18T22:01:11.855Z,4.50
2023-04-18T22:03:39.831Z,4.60
2023-04-18T22:06:07.916Z,4.13
2023-04-18T22:08:36.054Z,3.97
2023-04-18T22:11:04.606Z,3.83
2023-04-18T22:13:33.586Z,4.33
2023-04-18T22:16:03.337Z,5.50
2023-04-18T22:18:34.509Z,3.57
2023-04-18T22:21:03.127Z,4.97
2023-04-18T22:23:31.578Z,4.63
2023-04-18T22:25:59.485Z,4.20
2023-04-18T22:28:27.963Z,4.10
2023-04-18T22:30:55.762Z,3.97
2023-04-18T22:33:23.617Z,4.43
2023-04-18T22:35:54.122Z,4.60
2023-04-18T22:38:21.894Z,3.67
2023-04-18T22:40:49.589Z,3.97
2023-04-18T22:43:22.412Z,4.37
2023-04-18T22:45:50.303Z,4.60
2023-04-18T22:48:18.457Z,4.20
2023-04-18T22:50:47.268Z,4.00
2023-04-18T22:53:16.659Z,3.87
2023-04-18T22:55:45.503Z,4.20
2023-04-18T22:58:13.662Z,4.10
2023-04-18T23:00:41.402Z,4.90
2023-04-18T23:03:09.298Z,3.90
2023-04-18T23:05:37.165Z,4.50
2023-04-18T23:08:06.785Z,4.83
2023-04-18T23:10:36.231Z,4.53
2023-04-18T23:13:03.974Z,4.80
2023-04-18T23:15:32.066Z,4.50
2023-04-18T23:17:59.896Z,4.57
2023-04-18T23:20:27.670Z,4.47
2023-04-18T23:22:55.979Z,4.33
2023-04-18T23:25:23.801Z,4.55
2023-04-18T23:27:52.830Z,5.00
2023-04-18T23:30:20.503Z,4.93
2023-04-18T23:32:48.283Z,5.00
2023-04-18T23:35:16.046Z,4.73
2023-04-18T23:37:43.801Z,4.60
2023-04-18T23:40:11.678Z,4.33
2023-04-18T23:42:39.493Z,4.43
2023-04-18T23:45:09.432Z,4.20
2023-04-18T23:47:37.176Z,4.70
2023-04-18T23:50:05.548Z,5.17
2023-04-18T23:52:33.281Z,5.40
2023-04-18T23:55:01.479Z,4.63
2023-04-18T23:57:29.269Z,4.40
2023-04-18T23:59:56.945Z,4.40
